createdAt,value
2022-08-17T00:00:06.221Z,8.10
2022-08-17T00:02:35.998Z,8.02
2022-08-17T00:05:11.851Z,8.10
2022-08-17T00:07:39.673Z,8.03
2022-08-17T00:10:08.346Z,7.80
2022-08-17T00:12:44.314Z,8.10
2022-08-17T00:15:14.379Z,7.90
2022-08-17T00:17:43.420Z,8.35
2022-08-17T00:20:13.426Z,8.35
2022-08-17T00:22:42.944Z,7.93
2022-08-17T00:25:14.482Z,7.85
2022-08-17T00:27:42.454Z,8.10
2022-08-17T00:30:12.627Z,8.60
2022-08-17T00:33:11.821Z,8.30
2022-08-17T00:35:31.174Z,8.25
2022-08-17T00:37:58.738Z,8.18
2022-08-17T00:40:27.627Z,8.27
2022-08-17T00:43:36.666Z,8.20
2022-08-17T00:46:07.544Z,8.10
2022-08-17T00:48:36.474Z,8.30
2022-08-17T00:51:12.905Z,8.60
2022-08-17T00:53:44.103Z,8.75
2022-08-17T00:56:19.434Z,8.83
2022-08-17T00:58:47.069Z,8.43
2022-08-17T01:01:21.179Z,8.65
2022-08-17T01:03:50.119Z,7.97
2022-08-17T01:06:20.729Z,8.57
2022-08-17T01:08:57.273Z,8.65
2022-08-17T01:11:26.328Z,8.50
2022-08-17T01:13:54.431Z,8.77
2022-08-17T01:16:25.340Z,8.90
2022-08-17T01:18:56.381Z,9.18
2022-08-17T01:21:30.256Z,8.93
2022-08-17T01:23:59.703Z,9.20
2022-08-17T01:26:29.047Z,8.80
2022-08-17T01:28:57.026Z,8.90
2022-08-17T01:31:28.938Z,9.20
2022-08-17T01:33:57.846Z,9.45
2022-08-17T01:36:25.469Z,9.10
2022-08-17T01:38:53.085Z,9.13
2022-08-17T01:41:23.137Z,8.93
2022-08-17T01:43:55.019Z,9.25
2022-08-17T01:46:26.916Z,8.88
2022-08-17T01:48:56.259Z,8.85
2022-08-17T01:51:24.878Z,9.57
2022-08-17T01:53:55.222Z,8.80
2022-08-17T01:56:26.883Z,9.23
2022-08-17T01:58:55.173Z,9.40
2022-08-17T02:01:26.388Z,8.85
2022-08-17T02:04:00.447Z,8.82
2022-08-17T02:06:30.483Z,8.07
2022-08-17T02:09:03.111Z,8.50
2022-08-17T02:11:34.447Z,8.90
2022-08-17T02:14:04.093Z,8.23
2022-08-17T02:16:37.541Z,8.32
2022-08-17T02:19:09.083Z,8.68
2022-08-17T02:21:37.243Z,8.18
2022-08-17T02:24:05.981Z,8.60
2022-08-17T02:26:36.178Z,8.35
2022-08-17T02:29:04.237Z,8.52
2022-08-17T02:31:32.274Z,8.63
2022-08-17T02:34:04.469Z,8.43
2022-08-17T02:36:34.662Z,8.70
2022-08-17T02:39:02.791Z,8.80
2022-08-17T02:41:30.705Z,8.38
2022-08-17T02:43:59.715Z,8.68
2022-08-17T02:46:27.823Z,8.55
2022-08-17T02:48:55.668Z,8.75
2022-08-17T02:51:23.565Z,8.63
2022-08-17T02:53:51.228Z,8.95
2022-08-17T02:56:19.133Z,8.18
2022-08-17T02:58:47.441Z,8.52
2022-08-17T03:01:16.499Z,8.70
2022-08-17T03:03:44.222Z,8.32
2022-08-17T03:06:12.070Z,8.60
2022-08-17T03:08:40.537Z,9.02
2022-08-17T03:11:08.174Z,8.98
2022-08-17T03:13:35.851Z,8.48
2022-08-17T03:16:03.525Z,8.55
2022-08-17T03:18:32.615Z,8.30
2022-08-17T03:21:04.251Z,8.60
2022-08-17T03:23:32.689Z,9.15
2022-08-17T03:26:01.313Z,9.00
2022-08-17T03:28:29.890Z,9.00
2022-08-17T03:30:57.461Z,8.73
2022-08-17T03:33:25.134Z,8.88
2022-08-17T03:35:54.200Z,8.75
2022-08-17T03:38:21.987Z,8.38
2022-08-17T03:40:58.156Z,9.10
2022-08-17T03:43:28.892Z,9.93
2022-08-17T03:46:33.829Z,8.60
2022-08-17T03:49:19.388Z,8.98
2022-08-17T03:52:05.997Z,8.38
2022-08-17T03:54:51.555Z,8.98
2022-08-17T03:57:20.292Z,8.52
2022-08-17T03:59:48.338Z,8.85
2022-08-17T04:02:19.840Z,8.40
2022-08-17T04:04:50.606Z,8.20
2022-08-17T04:07:20.634Z,8.30
2022-08-17T04:09:48.691Z,7.60
2022-08-17T04:12:17.912Z,6.38
2022-08-17T04:14:52.214Z,6.40
2022-08-17T04:17:24.410Z,6.47
2022-08-17T04:19:52.216Z,6.70
2022-08-17T04:22:32.344Z,6.40
2022-08-17T04:25:08.926Z,5.65
2022-08-17T04:27:37.470Z,5.95
2022-08-17T04:30:06.865Z,6.28
2022-08-17T04:33:04.057Z,6.50
2022-08-17T04:35:37.487Z,6.28
2022-08-17T04:38:07.622Z,6.43
2022-08-17T04:40:53.445Z,5.90
2022-08-17T04:43:22.831Z,5.93
2022-08-17T04:45:56.048Z,5.15
2022-08-17T04:48:35.255Z,5.53
2022-08-17T04:51:07.073Z,6.10
2022-08-17T04:53:37.242Z,6.10
2022-08-17T04:56:05.625Z,5.80
2022-08-17T04:58:33.348Z,5.80
2022-08-17T05:01:01.387Z,6.20
2022-08-17T05:03:29.298Z,6.15
2022-08-17T05:05:56.951Z,6.20
2022-08-17T05:08:24.747Z,5.88
2022-08-17T05:10:53.820Z,5.55
2022-08-17T05:13:24.527Z,5.65
2022-08-17T05:15:55.887Z,5.15
2022-08-17T05:18:24.674Z,5.30
2022-08-17T05:20:53.374Z,5.95
2022-08-17T05:23:22.793Z,5.60
2022-08-17T05:25:54.614Z,5.80
2022-08-17T05:28:26.716Z,5.97
2022-08-17T05:30:56.772Z,5.97
2022-08-17T05:33:27.385Z,6.40
2022-08-17T05:35:57.439Z,6.10
2022-08-17T05:38:27.639Z,5.90
2022-08-17T05:40:57.394Z,6.13
2022-08-17T05:43:28.251Z,6.55
2022-08-17T05:46:03.794Z,7.10
2022-08-17T05:48:40.014Z,6.72
2022-08-17T05:51:31.248Z,6.70
2022-08-17T05:54:10.608Z,6.03
2022-08-17T05:57:00.935Z,6.30
2022-08-17T05:59:36.172Z,6.75
2022-08-17T06:02:10.835Z,6.63
2022-08-17T06:04:56.931Z,6.20
2022-08-17T06:07:32.750Z,6.95
2022-08-17T06:10:09.171Z,6.70
2022-08-17T06:12:47.185Z,6.93
2022-08-17T06:15:27.309Z,6.78
2022-08-17T06:17:58.399Z,6.35
2022-08-17T06:20:29.742Z,6.40
2022-08-17T06:23:03.851Z,6.70
2022-08-17T06:25:37.874Z,6.18
2022-08-17T06:28:13.842Z,5.30
2022-08-17T06:30:59.902Z,5.03
2022-08-17T06:33:34.064Z,5.28
2022-08-17T06:36:11.303Z,5.80
2022-08-17T06:38:54.749Z,6.30
2022-08-17T06:41:31.414Z,6.28
2022-08-17T06:44:42.258Z,6.63
2022-08-17T06:47:08.937Z,6.57
2022-08-17T06:49:45.311Z,6.72
2022-08-17T06:52:46.026Z,5.97
2022-08-17T06:55:18.703Z,4.80
2022-08-17T06:57:51.082Z,4.90
2022-08-17T07:00:23.178Z,4.55
2022-08-17T07:02:55.296Z,5.15
2022-08-17T07:05:27.890Z,5.80
2022-08-17T07:08:02.732Z,5.50
2022-08-17T07:10:36.019Z,5.65
2022-08-17T07:13:15.303Z,6.13
2022-08-17T07:15:45.804Z,6.60
2022-08-17T07:18:13.825Z,6.10
2022-08-17T07:20:45.823Z,6.15
2022-08-17T07:23:23.857Z,6.78
2022-08-17T07:25:51.641Z,6.50
2022-08-17T07:28:24.346Z,6.53
2022-08-17T07:30:55.399Z,7.05
2022-08-17T07:33:26.542Z,6.82
2022-08-17T07:35:54.920Z,7.05
2022-08-17T07:38:26.910Z,7.10
2022-08-17T07:41:03.761Z,7.13
2022-08-17T07:43:34.936Z,6.45
2022-08-17T07:46:35.435Z,6.60
2022-08-17T07:49:37.042Z,6.63
2022-08-17T07:52:48.128Z,6.68
2022-08-17T07:54:59.136Z,7.20
2022-08-17T07:57:37.067Z,8.07
2022-08-17T08:00:16.913Z,7.70
2022-08-17T08:02:59.913Z,7.15
2022-08-17T08:05:50.335Z,7.70
2022-08-17T08:08:25.354Z,7.13
2022-08-17T08:11:01.471Z,7.53
2022-08-17T08:13:32.143Z,7.50
2022-08-17T08:16:23.783Z,7.85
2022-08-17T08:18:57.157Z,7.93
2022-08-17T08:21:36.981Z,8.30
2022-08-17T08:24:30.016Z,8.43
2022-08-17T08:27:09.738Z,8.52
2022-08-17T08:29:47.306Z,8.70
2022-08-17T08:32:20.957Z,9.18
2022-08-17T08:35:01.607Z,9.20
2022-08-17T08:37:43.609Z,8.20
2022-08-17T08:40:29.980Z,8.63
2022-08-17T08:43:09.024Z,7.55
2022-08-17T08:45:45.209Z,8.43
2022-08-17T08:48:53.187Z,7.32
2022-08-17T08:51:22.367Z,7.57
2022-08-17T08:53:59.446Z,7.60
2022-08-17T08:56:35.216Z,7.50
2022-08-17T08:59:13.761Z,8.00
2022-08-17T09:01:51.694Z,7.10
2022-08-17T09:05:02.684Z,8.02
2022-08-17T09:07:34.706Z,7.22
2022-08-17T09:10:09.525Z,7.05
2022-08-17T09:12:47.546Z,6.40
2022-08-17T09:15:19.982Z,6.13
2022-08-17T09:18:14.642Z,6.13
2022-08-17T09:20:50.161Z,6.35
2022-08-17T09:23:32.392Z,6.22
2022-08-17T09:26:07.729Z,5.88
2022-08-17T09:28:37.777Z,5.68
2022-08-17T09:31:09.729Z,5.40
2022-08-17T09:33:43.998Z,5.50
2022-08-17T09:36:15.800Z,5.32
2022-08-17T09:38:57.965Z,5.70
2022-08-17T09:41:32.326Z,5.32
2022-08-17T09:44:03.978Z,5.10
2022-08-17T09:46:38.723Z,4.85
2022-08-17T09:49:11.881Z,4.50
2022-08-17T09:51:44.376Z,4.97
2022-08-17T09:54:38.666Z,5.10
2022-08-17T09:57:29.779Z,5.03
2022-08-17T10:00:13.167Z,4.63
2022-08-17T10:02:58.252Z,4.80
2022-08-17T10:05:32.473Z,4.75
2022-08-17T10:08:09.862Z,4.50
2022-08-17T10:10:52.450Z,4.50
2022-08-17T10:13:36.689Z,4.57
2022-08-17T10:16:14.683Z,4.45
2022-08-17T10:18:51.643Z,4.85
2022-08-17T10:21:38.034Z,4.05
2022-08-17T10:24:36.179Z,4.15
2022-08-17T10:27:11.641Z,4.40
2022-08-17T10:29:49.021Z,4.18
2022-08-17T10:32:26.509Z,4.60
2022-08-17T10:35:18.860Z,4.50
2022-08-17T10:38:01.119Z,5.07
2022-08-17T10:40:36.458Z,5.85
2022-08-17T10:43:24.756Z,5.60
2022-08-17T10:46:30.375Z,5.28
2022-08-17T10:49:14.451Z,5.53
2022-08-17T10:51:43.018Z,5.40
2022-08-17T10:54:36.308Z,4.88
2022-08-17T10:57:23.957Z,5.05
2022-08-17T10:59:54.803Z,4.68
2022-08-17T11:02:31.369Z,5.32
2022-08-17T11:05:14.711Z,5.25
2022-08-17T11:07:58.624Z,4.88
2022-08-17T11:10:54.997Z,4.78
2022-08-17T11:13:37.659Z,4.55
2022-08-17T11:16:23.288Z,4.70
2022-08-17T11:19:11.638Z,4.53
2022-08-17T11:21:54.779Z,4.38
2022-08-17T11:24:30.507Z,4.68
2022-08-17T11:27:13.526Z,4.57
2022-08-17T11:29:56.740Z,5.00
2022-08-17T11:32:37.558Z,5.00
2022-08-17T11:35:15.685Z,4.30
2022-08-17T11:37:55.026Z,4.07
2022-08-17T11:40:43.069Z,4.50
2022-08-17T11:43:48.969Z,4.72
2022-08-17T11:46:51.726Z,5.10
2022-08-17T11:49:45.154Z,4.97
2022-08-17T11:52:38.454Z,5.07
2022-08-17T11:55:33.925Z,4.80
2022-08-17T11:58:01.698Z,4.65
2022-08-17T12:00:58.409Z,4.53
2022-08-17T12:03:58.785Z,4.68
2022-08-17T12:06:44.952Z,4.40
2022-08-17T12:09:18.403Z,4.63
2022-08-17T12:11:58.665Z,4.40
2022-08-17T12:15:09.078Z,4.30
2022-08-17T12:17:52.057Z,4.65
2022-08-17T12:20:24.180Z,4.60
2022-08-17T12:23:04.221Z,4.30
2022-08-17T12:25:37.375Z,4.20
2022-08-17T12:28:20.141Z,4.35
2022-08-17T12:30:50.435Z,4.68
2022-08-17T12:33:25.247Z,4.68
2022-08-17T12:36:02.819Z,4.30
2022-08-17T12:38:34.392Z,4.47
2022-08-17T12:41:25.276Z,4.00
2022-08-17T12:44:02.050Z,3.58
2022-08-17T12:49:16.129Z,4.30
2022-08-17T12:51:45.529Z,3.95
2022-08-17T12:54:29.527Z,3.95
2022-08-17T12:57:06.613Z,3.95
2022-08-17T12:59:34.359Z,3.83
2022-08-17T13:02:02.321Z,3.67
2022-08-17T13:04:30.188Z,3.80
2022-08-17T13:07:00.193Z,3.92
2022-08-17T13:09:35.830Z,4.00
2022-08-17T13:12:08.888Z,4.05
2022-08-17T13:14:36.696Z,3.90
2022-08-17T13:17:08.584Z,4.35
2022-08-17T13:19:49.297Z,4.20
2022-08-17T13:22:18.294Z,4.32
2022-08-17T13:24:54.298Z,4.05
2022-08-17T13:27:24.975Z,4.28
2022-08-17T13:29:55.739Z,3.80
2022-08-17T13:32:35.832Z,4.38
2022-08-17T13:35:32.814Z,4.20
2022-08-17T13:38:10.422Z,3.85
2022-08-17T13:40:43.469Z,4.05
2022-08-17T13:43:12.420Z,4.35
2022-08-17T13:45:52.215Z,4.13
2022-08-17T13:48:27.619Z,4.20
2022-08-17T13:51:14.688Z,4.20
2022-08-17T13:53:53.390Z,4.22
2022-08-17T13:56:55.663Z,4.15
2022-08-17T13:59:52.886Z,4.00
2022-08-17T14:02:27.777Z,4.05
2022-08-17T14:04:56.333Z,4.05
2022-08-17T14:07:32.350Z,4.22
2022-08-17T14:10:03.218Z,4.05
2022-08-17T14:12:35.433Z,3.83
2022-08-17T14:15:03.302Z,4.20
2022-08-17T14:17:35.072Z,3.72
2022-08-17T14:20:09.328Z,4.00
2022-08-17T14:22:39.223Z,4.00
2022-08-17T14:25:10.331Z,3.80
2022-08-17T14:27:51.913Z,3.80
2022-08-17T14:30:23.331Z,4.07
2022-08-17T14:32:51.915Z,3.97
2022-08-17T14:35:22.284Z,4.30
2022-08-17T14:37:50.074Z,4.32
2022-08-17T14:40:20.733Z,4.00
2022-08-17T14:42:49.806Z,4.00
2022-08-17T14:45:30.356Z,3.83
2022-08-17T14:48:00.357Z,4.03
2022-08-17T14:50:28.087Z,4.05
2022-08-17T14:52:57.879Z,3.95
2022-08-17T14:55:25.996Z,3.88
2022-08-17T14:57:54.986Z,3.88
2022-08-17T15:00:22.872Z,3.67
2022-08-17T15:02:53.666Z,3.97
2022-08-17T15:05:24.641Z,3.92
2022-08-17T15:07:52.797Z,3.88
2022-08-17T15:10:21.379Z,3.95
2022-08-17T15:12:49.731Z,3.88
2022-08-17T15:15:19.206Z,3.85
2022-08-17T15:17:46.863Z,3.75
2022-08-17T15:20:17.327Z,3.67
2022-08-17T15:22:49.477Z,3.65
2022-08-17T15:25:18.826Z,3.35
2022-08-17T15:27:47.342Z,3.58
2022-08-17T15:30:15.468Z,3.80
2022-08-17T15:32:50.868Z,3.65
2022-08-17T15:35:26.804Z,3.90
2022-08-17T15:37:56.453Z,3.40
2022-08-17T15:40:25.027Z,3.10
2022-08-17T15:42:52.993Z,3.55
2022-08-17T15:45:24.735Z,3.40
2022-08-17T15:47:54.003Z,3.28
2022-08-17T15:50:22.032Z,3.42
2022-08-17T15:52:56.394Z,3.45
2022-08-17T15:55:24.425Z,3.22
2022-08-17T15:57:53.093Z,3.50
2022-08-17T16:00:23.538Z,3.20
2022-08-17T16:03:44.715Z,3.30
2022-08-17T16:05:42.549Z,3.75
2022-08-17T16:08:11.060Z,3.20
2022-08-17T16:10:38.982Z,3.45
2022-08-17T16:13:17.634Z,3.58
2022-08-17T16:15:49.741Z,3.40
2022-08-17T16:18:30.898Z,3.55
2022-08-17T16:21:19.118Z,3.40
2022-08-17T16:23:47.091Z,3.50
2022-08-17T16:26:15.090Z,3.75
2022-08-17T16:28:42.937Z,3.80
2022-08-17T16:31:10.871Z,3.60
2022-08-17T16:33:40.302Z,3.85
2022-08-17T16:36:09.100Z,3.70
2022-08-17T16:38:38.559Z,3.50
2022-08-17T16:41:07.147Z,4.00
2022-08-17T16:43:35.905Z,4.10
2022-08-17T16:46:03.571Z,3.90
2022-08-17T16:48:31.829Z,3.70
2022-08-17T16:51:04.276Z,3.80
2022-08-17T16:53:32.850Z,3.97
2022-08-17T16:56:00.517Z,3.75
2022-08-17T16:58:28.373Z,4.38
2022-08-17T17:00:59.616Z,4.00
2022-08-17T17:03:30.226Z,4.00
2022-08-17T17:06:13.375Z,4.10
2022-08-17T17:08:46.646Z,4.10
2022-08-17T17:11:19.225Z,3.80
2022-08-17T17:13:54.062Z,3.63
2022-08-17T17:16:29.249Z,4.13
2022-08-17T17:19:06.817Z,4.15
2022-08-17T17:21:44.569Z,3.72
2022-08-17T17:24:19.377Z,4.07
2022-08-17T17:27:08.698Z,3.80
2022-08-17T17:29:50.269Z,4.18
2022-08-17T17:32:22.720Z,4.15
2022-08-17T17:34:58.691Z,3.80
2022-08-17T17:37:34.797Z,4.00
2022-08-17T17:40:06.520Z,4.13
2022-08-17T17:42:40.187Z,4.00
2022-08-17T17:45:16.936Z,5.43
2022-08-17T17:47:45.598Z,4.00
2022-08-17T17:50:14.106Z,4.30
2022-08-17T17:52:51.163Z,4.10
2022-08-17T17:55:34.325Z,4.10
2022-08-17T17:58:13.268Z,4.32
2022-08-17T18:00:49.029Z,3.97
2022-08-17T18:03:35.070Z,4.18
2022-08-17T18:06:15.023Z,3.95
2022-08-17T18:08:57.256Z,4.20
2022-08-17T18:11:54.035Z,4.15
2022-08-17T18:14:43.199Z,4.18
2022-08-17T18:17:11.114Z,4.70
2022-08-17T18:19:40.859Z,4.65
2022-08-17T18:22:14.496Z,4.32
2022-08-17T18:24:46.120Z,4.38
2022-08-17T18:27:24.275Z,4.65
2022-08-17T18:29:54.086Z,4.68
2022-08-17T18:32:32.442Z,4.50
2022-08-17T18:35:27.797Z,4.43
2022-08-17T18:37:58.915Z,4.97
2022-08-17T18:40:36.270Z,4.30
2022-08-17T18:43:08.467Z,4.80
2022-08-17T18:45:40.778Z,4.70
2022-08-17T18:48:22.231Z,5.03
2022-08-17T18:50:53.550Z,5.43
2022-08-17T18:53:42.212Z,5.00
2022-08-17T18:56:30.512Z,5.72
2022-08-17T18:59:35.114Z,6.80
2022-08-17T19:02:34.630Z,9.15
2022-08-17T19:05:13.388Z,6.30
2022-08-17T19:07:43.684Z,5.50
2022-08-17T19:10:19.907Z,4.82
2022-08-17T19:12:52.690Z,4.82
2022-08-17T19:15:27.720Z,5.18
2022-08-17T19:18:00.302Z,5.10
2022-08-17T19:20:32.622Z,4.65
2022-08-17T19:23:21.239Z,5.07
2022-08-17T19:25:53.656Z,5.25
2022-08-17T19:28:25.685Z,5.57
2022-08-17T19:30:58.193Z,5.45
2022-08-17T19:33:26.851Z,5.22
2022-08-17T19:36:04.126Z,5.20
2022-08-17T19:38:45.900Z,4.57
2022-08-17T19:41:23.241Z,5.18
2022-08-17T19:44:12.676Z,4.90
2022-08-17T19:46:50.019Z,5.22
2022-08-17T19:49:32.816Z,5.30
2022-08-17T19:52:07.911Z,5.63
2022-08-17T19:54:41.454Z,5.15
2022-08-17T19:57:21.351Z,5.35
2022-08-17T19:59:55.027Z,4.85
2022-08-17T20:02:35.174Z,5.22
2022-08-17T20:05:18.044Z,5.20
2022-08-17T20:07:54.481Z,5.93
2022-08-17T20:10:39.412Z,5.75
2022-08-17T20:13:11.075Z,5.15
2022-08-17T20:15:42.794Z,5.30
2022-08-17T20:18:17.323Z,5.05
2022-08-17T20:20:56.679Z,5.15
2022-08-17T20:23:36.485Z,5.07
2022-08-17T20:26:17.167Z,5.30
2022-08-17T20:29:31.858Z,5.40
2022-08-17T20:32:26.561Z,5.30
2022-08-17T20:35:23.551Z,5.55
2022-08-17T20:37:55.760Z,5.45
2022-08-17T20:40:28.434Z,5.53
2022-08-17T20:42:57.067Z,5.28
2022-08-17T20:45:54.987Z,5.28
2022-08-17T20:48:38.057Z,5.30
2022-08-17T20:51:27.043Z,5.20
2022-08-17T20:54:26.412Z,5.00
2022-08-17T20:56:57.678Z,5.30
2022-08-17T21:00:18.167Z,5.35
2022-08-17T21:02:49.532Z,5.40
2022-08-17T21:05:59.782Z,5.32
2022-08-17T21:08:30.382Z,5.13
2022-08-17T21:11:00.150Z,5.53
2022-08-17T21:14:05.063Z,5.28
2022-08-17T21:16:42.249Z,5.00
2022-08-17T21:19:24.949Z,5.72
2022-08-17T21:22:04.106Z,5.25
2022-08-17T21:24:44.479Z,5.40
2022-08-17T21:27:26.939Z,5.20
2022-08-17T21:30:16.515Z,5.13
2022-08-17T21:33:25.008Z,5.70
2022-08-17T21:36:11.308Z,5.40
2022-08-17T21:38:42.559Z,5.65
2022-08-17T21:41:20.721Z,5.30
2022-08-17T21:43:51.986Z,5.57
2022-08-17T21:46:28.532Z,5.40
2022-08-17T21:49:03.337Z,5.28
2022-08-17T21:51:45.765Z,5.30
2022-08-17T21:54:30.836Z,5.70
2022-08-17T21:57:00.844Z,5.47
2022-08-17T21:59:31.652Z,5.57
2022-08-17T22:02:01.963Z,5.40
2022-08-17T22:04:31.916Z,5.25
2022-08-17T22:07:02.526Z,5.53
2022-08-17T22:09:33.350Z,5.15
2022-08-17T22:12:05.684Z,5.68
2022-08-17T22:14:52.345Z,5.90
2022-08-17T22:17:24.627Z,5.90
2022-08-17T22:19:54.831Z,5.45
2022-08-17T22:22:32.469Z,5.70
2022-08-17T22:25:02.433Z,5.20
2022-08-17T22:27:49.644Z,5.32
2022-08-17T22:30:30.575Z,5.57
2022-08-17T22:32:59.300Z,5.40
2022-08-17T22:35:34.442Z,5.60
2022-08-17T22:38:32.854Z,5.40
2022-08-17T22:41:30.099Z,5.90
2022-08-17T22:43:59.376Z,5.40
2022-08-17T22:46:27.452Z,5.28
2022-08-17T22:48:57.857Z,5.28
2022-08-17T22:51:30.218Z,5.90
2022-08-17T22:54:20.473Z,5.45
2022-08-17T22:57:18.743Z,5.75
2022-08-17T22:59:49.210Z,5.18
2022-08-17T23:02:21.370Z,5.80
2022-08-17T23:04:52.916Z,5.53
2022-08-17T23:07:22.212Z,6.20
2022-08-17T23:09:53.029Z,5.70
2022-08-17T23:12:27.138Z,5.32
2022-08-17T23:15:01.516Z,5.97
2022-08-17T23:17:33.859Z,5.53
2022-08-17T23:20:05.738Z,6.10
2022-08-17T23:22:34.151Z,5.70
2022-08-17T23:25:03.659Z,5.75
2022-08-17T23:27:32.247Z,6.05
2022-08-17T23:29:59.933Z,6.07
2022-08-17T23:32:28.483Z,5.35
2022-08-17T23:34:56.606Z,6.10
2022-08-17T23:37:25.928Z,5.40
2022-08-17T23:39:53.985Z,6.05
2022-08-17T23:42:23.042Z,5.60
2022-08-17T23:44:50.690Z,5.75
2022-08-17T23:47:18.474Z,6.07
2022-08-17T23:49:46.251Z,6.00
2022-08-17T23:52:16.381Z,6.32
2022-08-17T23:54:46.518Z,6.60
2022-08-17T23:57:16.672Z,5.85
2022-08-17T23:59:46.246Z,5.78
